Time;durP1;ratioP1;P1;durP2;ratioP2;P2;SDS_P1;SDS_P2;PMS_P1;PMS_P2;Temp;Humidity;BMP_temperature;BMP_pressure;BME280_temperature;BME280_humidity;BME280_pressure;Samples;Min_cycle;Max_cycle;Signal;HPM_P1;HPM_P2
2022/10/24 00:00:12;;;;;;;7.20;3.60;;;;;;;;;;106932;1307;22588;-81
2022/10/24 00:02:58;;;;;;;7.80;3.60;;;;;;;;;;106871;1307;21954;-81
2022/10/24 00:05:25;;;;;;;8.70;4.20;;;;;;;;;;106848;1299;22655;-80
2022/10/24 00:07:52;;;;;;;8.10;4.20;;;;;;;;;;106763;1308;22049;-80
2022/10/24 00:10:20;;;;;;;9.30;4.00;;;;;;;;;;106678;1309;22079;-80
2022/10/24 00:12:48;;;;;;;8.40;4.10;;;;;;;;;;106745;1309;22114;-80
2022/10/24 00:15:16;;;;;;;8.40;3.80;;;;;;;;;;106767;1307;22077;-80
2022/10/24 00:17:44;;;;;;;9.80;4.10;;;;;;;;;;106750;1307;22105;-80
2022/10/24 00:20:12;;;;;;;7.90;4.00;;;;;;;;;;106708;1302;22105;-81
2022/10/24 00:22:39;;;;;;;13.60;4.60;;;;;;;;;;106741;1308;22113;-80
2022/10/24 00:25:07;;;;;;;8.50;4.10;;;;;;;;;;106614;1310;22052;-80
2022/10/24 00:27:35;;;;;;;10.00;4.30;;;;;;;;;;106772;1310;22066;-80
2022/10/24 00:30:03;;;;;;;9.60;4.40;;;;;;;;;;106658;1310;22734;-80
2022/10/24 00:32:31;;;;;;;10.30;5.00;;;;;;;;;;106670;1310;22880;-80
2022/10/24 00:34:59;;;;;;;9.70;4.60;;;;;;;;;;106698;1308;22148;-80
2022/10/24 00:37:26;;;;;;;9.60;4.20;;;;;;;;;;106771;1307;22072;-80
2022/10/24 00:39:54;;;;;;;9.70;4.20;;;;;;;;;;106774;1310;22092;-80
2022/10/24 00:42:21;;;;;;;8.50;4.20;;;;;;;;;;106707;1307;22070;-79
2022/10/24 00:44:51;;;;;;;9.60;4.00;;;;;;;;;;106783;1307;22049;-80
2022/10/24 00:47:24;;;;;;;8.50;4.40;;;;;;;;;;106668;1304;22055;-79
2022/10/24 00:49:59;;;;;;;9.80;4.40;;;;;;;;;;106673;1310;22705;-79
2022/10/24 00:52:33;;;;;;;8.10;3.90;;;;;;;;;;106644;1304;22053;-80
2022/10/24 00:55:00;;;;;;;9.70;4.20;;;;;;;;;;106656;1292;22054;-79
2022/10/24 00:57:40;;;;;;;9.60;4.20;;;;;;;;;;106703;1309;22064;-80
2022/10/24 01:00:11;;;;;;;8.50;4.30;;;;;;;;;;106759;1307;22077;-80
2022/10/24 01:02:39;;;;;;;7.30;4.00;;;;;;;;;;106705;1308;22087;-79
2022/10/24 01:05:07;;;;;;;9.70;4.60;;;;;;;;;;106778;1307;22042;-80
2022/10/24 01:08:07;;;;;;;8.20;4.20;;;;;;;;;;106682;1310;22633;-81
2022/10/24 01:10:48;;;;;;;7.00;3.50;;;;;;;;;;106673;1310;22095;-80
2022/10/24 01:13:30;;;;;;;6.90;3.30;;;;;;;;;;106759;1310;22636;-81
2022/10/24 01:16:17;;;;;;;9.90;3.80;;;;;;;;;;106679;1310;22074;-80
2022/10/24 01:19:08;;;;;;;8.80;3.70;;;;;;;;;;106868;1308;22104;-79
2022/10/24 01:21:41;;;;;;;8.60;3.70;;;;;;;;;;106706;1307;22079;-80
2022/10/24 01:24:29;;;;;;;8.50;3.80;;;;;;;;;;106708;1298;22146;-80
2022/10/24 01:27:08;;;;;;;7.60;3.60;;;;;;;;;;106690;1309;22073;-80
2022/10/24 01:29:56;;;;;;;8.60;4.20;;;;;;;;;;106601;1310;22082;-80
2022/10/24 01:32:36;;;;;;;8.40;3.60;;;;;;;;;;106658;1307;22055;-80
2022/10/24 01:35:11;;;;;;;7.30;3.40;;;;;;;;;;106749;1310;22044;-80
2022/10/24 01:37:52;;;;;;;7.20;3.50;;;;;;;;;;106858;1310;22089;-80
2022/10/24 01:40:26;;;;;;;6.70;3.30;;;;;;;;;;106721;1303;22044;-81
2022/10/24 01:42:57;;;;;;;8.30;3.10;;;;;;;;;;106889;1300;22065;-80
2022/10/24 01:45:28;;;;;;;7.20;3.00;;;;;;;;;;106677;1295;22820;-80
2022/10/24 01:48:00;;;;;;;8.30;3.20;;;;;;;;;;106620;1307;21963;-79
2022/10/24 01:50:31;;;;;;;7.80;2.90;;;;;;;;;;106681;1310;22077;-79
2022/10/24 01:53:01;;;;;;;8.00;3.10;;;;;;;;;;106670;1310;22105;-80
2022/10/24 01:55:32;;;;;;;6.20;2.80;;;;;;;;;;106701;1310;22842;-80
2022/10/24 01:58:01;;;;;;;6.90;2.80;;;;;;;;;;106731;1309;22070;-81
2022/10/24 02:00:30;;;;;;;7.30;3.20;;;;;;;;;;106589;1310;22047;-81
2022/10/24 02:03:01;;;;;;;6.80;3.30;;;;;;;;;;106675;1310;22679;-80
2022/10/24 02:05:34;;;;;;;7.30;2.70;;;;;;;;;;106688;1310;22032;-80
2022/10/24 02:15:09;;;;;;;6.90;3.10;;;;;;;;;;100395;1338;544962;-83
2022/10/24 02:17:36;;;;;;;7.40;3.10;;;;;;;;;;102473;1319;23866;-80
2022/10/24 02:20:03;;;;;;;6.30;3.00;;;;;;;;;;102489;1317;24200;-85
2022/10/24 02:22:35;;;;;;;6.80;3.30;;;;;;;;;;102618;1311;22517;-87
2022/10/24 02:25:06;;;;;;;6.20;2.90;;;;;;;;;;102797;1313;24747;-82
2022/10/24 02:27:37;;;;;;;9.10;3.20;;;;;;;;;;102612;1316;123299;-82
2022/10/24 02:30:08;;;;;;;7.60;3.20;;;;;;;;;;102983;1311;22474;-89
2022/10/24 02:32:37;;;;;;;7.10;3.20;;;;;;;;;;103036;1310;25227;-81
2022/10/24 02:35:05;;;;;;;6.30;3.00;;;;;;;;;;102990;1311;23625;-82
2022/10/24 02:37:33;;;;;;;9.00;3.30;;;;;;;;;;103292;1310;24211;-83
2022/10/24 02:40:02;;;;;;;9.50;3.20;;;;;;;;;;103031;1310;22597;-89
2022/10/24 02:42:28;;;;;;;7.10;3.20;;;;;;;;;;103242;1304;24340;-86
2022/10/24 02:44:55;;;;;;;7.40;3.10;;;;;;;;;;103188;1304;22484;-89
2022/10/24 02:47:24;;;;;;;7.90;3.20;;;;;;;;;;103000;1297;24317;-81
2022/10/24 02:49:51;;;;;;;6.60;2.70;;;;;;;;;;103067;1312;22481;-87
2022/10/24 02:52:18;;;;;;;8.30;3.30;;;;;;;;;;102987;1312;22478;-85
2022/10/24 02:54:45;;;;;;;9.80;3.10;;;;;;;;;;103115;1310;22482;-85
2022/10/24 02:57:13;;;;;;;7.60;3.00;;;;;;;;;;102951;1311;23184;-84
2022/10/24 02:59:40;;;;;;;7.30;3.10;;;;;;;;;;103095;1310;24211;-82
2022/10/24 03:02:07;;;;;;;7.20;3.20;;;;;;;;;;102972;1313;25296;-86
2022/10/24 03:04:33;;;;;;;8.40;3.60;;;;;;;;;;103087;1310;25363;-81
2022/10/24 03:07:00;;;;;;;10.10;3.00;;;;;;;;;;102863;1301;22478;-86
2022/10/24 03:09:26;;;;;;;7.70;3.20;;;;;;;;;;102875;1313;23853;-84
2022/10/24 03:11:53;;;;;;;8.40;3.30;;;;;;;;;;103015;1313;22499;-86
2022/10/24 03:14:19;;;;;;;7.00;3.10;;;;;;;;;;102894;1313;24336;-87
2022/10/24 03:16:46;;;;;;;6.90;2.90;;;;;;;;;;102969;1313;25488;-86
2022/10/24 03:19:13;;;;;;;8.40;2.80;;;;;;;;;;102756;1316;25441;-83
2022/10/24 03:21:40;;;;;;;8.30;3.20;;;;;;;;;;102817;1314;25328;-83
2022/10/24 03:24:07;;;;;;;7.30;3.40;;;;;;;;;;102763;1313;25632;-82
2022/10/24 03:26:34;;;;;;;6.90;3.10;;;;;;;;;;102762;1301;22511;-83
2022/10/24 03:29:00;;;;;;;7.40;3.40;;;;;;;;;;102652;1294;22471;-81
2022/10/24 03:31:27;;;;;;;6.90;3.30;;;;;;;;;;102879;1297;22485;-86
2022/10/24 03:33:54;;;;;;;7.30;3.30;;;;;;;;;;102947;1313;22516;-86
2022/10/24 03:36:20;;;;;;;7.20;3.10;;;;;;;;;;102705;1304;25320;-85
2022/10/24 03:38:47;;;;;;;7.50;3.30;;;;;;;;;;102971;1313;24433;-82
2022/10/24 03:41:13;;;;;;;7.90;3.50;;;;;;;;;;102897;1307;25446;-82
2022/10/24 03:43:40;;;;;;;8.30;3.80;;;;;;;;;;102909;1308;22489;-84
2022/10/24 03:46:07;;;;;;;9.70;3.80;;;;;;;;;;102930;1298;22474;-85
2022/10/24 03:48:33;;;;;;;9.20;3.80;;;;;;;;;;102670;1311;22484;-82
2022/10/24 03:51:00;;;;;;;7.80;3.40;;;;;;;;;;102777;1315;24264;-83
2022/10/24 03:53:27;;;;;;;7.40;3.70;;;;;;;;;;102726;1313;22476;-84
2022/10/24 03:55:55;;;;;;;7.40;3.60;;;;;;;;;;102800;1314;24180;-90
2022/10/24 03:58:22;;;;;;;9.50;4.00;;;;;;;;;;102870;1313;24254;-88
2022/10/24 04:00:49;;;;;;;9.50;4.00;;;;;;;;;;102969;1313;22476;-87
2022/10/24 04:03:16;;;;;;;7.70;3.90;;;;;;;;;;102823;1314;24501;-81
2022/10/24 04:05:42;;;;;;;7.80;3.70;;;;;;;;;;102887;1313;22492;-82
2022/10/24 04:08:09;;;;;;;8.60;4.40;;;;;;;;;;103042;1313;25347;-85
2022/10/24 04:10:35;;;;;;;8.60;3.70;;;;;;;;;;102926;1313;22469;-82
2022/10/24 04:13:02;;;;;;;7.00;3.40;;;;;;;;;;102838;1316;22591;-88
2022/10/24 04:15:29;;;;;;;6.80;3.20;;;;;;;;;;102986;1305;22474;-86
2022/10/24 04:17:56;;;;;;;8.70;3.60;;;;;;;;;;102963;1313;24327;-84
2022/10/24 04:20:23;;;;;;;6.70;3.30;;;;;;;;;;102997;1313;23308;-86
2022/10/24 04:22:49;;;;;;;7.90;3.20;;;;;;;;;;103007;1313;22517;-86
2022/10/24 04:25:16;;;;;;;8.20;3.60;;;;;;;;;;103030;1312;22468;-81
2022/10/24 04:27:44;;;;;;;9.20;3.50;;;;;;;;;;102968;1305;24397;-89
2022/10/24 04:30:12;;;;;;;9.10;3.70;;;;;;;;;;102914;1304;22594;-84
2022/10/24 04:32:38;;;;;;;6.50;3.00;;;;;;;;;;102971;1313;24203;-84
2022/10/24 04:35:05;;;;;;;8.10;3.30;;;;;;;;;;102924;1313;21703;-83
2022/10/24 04:37:32;;;;;;;7.70;3.40;;;;;;;;;;102954;1312;25383;-84
2022/10/24 04:39:59;;;;;;;8.30;3.80;;;;;;;;;;102903;1313;22545;-81
2022/10/24 04:42:25;;;;;;;9.40;3.60;;;;;;;;;;102929;1298;25332;-81
2022/10/24 04:44:52;;;;;;;8.70;3.90;;;;;;;;;;102785;1291;26480;-85
2022/10/24 04:47:19;;;;;;;8.70;3.80;;;;;;;;;;103005;1304;22481;-85
2022/10/24 04:49:45;;;;;;;8.70;3.80;;;;;;;;;;103046;1291;22467;-83
2022/10/24 04:52:12;;;;;;;8.10;3.60;;;;;;;;;;102960;1313;22466;-88
2022/10/24 04:54:38;;;;;;;7.60;3.10;;;;;;;;;;102843;1301;22472;-84
2022/10/24 04:57:05;;;;;;;8.80;3.30;;;;;;;;;;102982;1291;22469;-82
2022/10/24 04:59:32;;;;;;;9.80;3.40;;;;;;;;;;102980;1295;25413;-81
2022/10/24 05:01:58;;;;;;;7.50;3.60;;;;;;;;;;103119;1307;25421;-84
2022/10/24 05:04:25;;;;;;;9.10;3.50;;;;;;;;;;102837;1308;22735;-82
2022/10/24 05:06:52;;;;;;;8.80;3.20;;;;;;;;;;102978;1313;22535;-82
2022/10/24 05:09:18;;;;;;;12.20;3.80;;;;;;;;;;102867;1312;24200;-85
2022/10/24 05:11:45;;;;;;;9.90;3.20;;;;;;;;;;102879;1312;25260;-81
2022/10/24 05:14:13;;;;;;;8.60;3.10;;;;;;;;;;102804;1314;25208;-88
2022/10/24 05:16:39;;;;;;;6.70;2.60;;;;;;;;;;102967;1314;22497;-86
2022/10/24 05:19:06;;;;;;;8.50;3.00;;;;;;;;;;102923;1313;25376;-86
2022/10/24 05:21:33;;;;;;;8.30;3.00;;;;;;;;;;103005;1305;24327;-81
2022/10/24 05:23:59;;;;;;;8.50;3.40;;;;;;;;;;102938;1309;22434;-86
2022/10/24 05:26:26;;;;;;;9.40;3.60;;;;;;;;;;102962;1313;22483;-83
2022/10/24 05:28:53;;;;;;;7.80;3.40;;;;;;;;;;102954;1289;25231;-86
2022/10/24 05:31:19;;;;;;;7.80;3.00;;;;;;;;;;103057;1313;22443;-86
2022/10/24 05:33:46;;;;;;;7.30;3.10;;;;;;;;;;102892;1314;25374;-81
2022/10/24 05:36:12;;;;;;;7.80;3.00;;;;;;;;;;103057;1313;22484;-84
2022/10/24 05:38:41;;;;;;;9.30;2.90;;;;;;;;;;102860;1308;22717;-84
2022/10/24 05:41:08;;;;;;;9.00;3.50;;;;;;;;;;102926;1313;22521;-85
2022/10/24 05:43:35;;;;;;;9.60;3.30;;;;;;;;;;102736;1313;25295;-82
2022/10/24 05:46:01;;;;;;;9.50;3.20;;;;;;;;;;102922;1313;25255;-83
2022/10/24 05:48:28;;;;;;;10.00;3.30;;;;;;;;;;102909;1313;24396;-82
2022/10/24 05:50:56;;;;;;;7.60;3.00;;;;;;;;;;103012;1313;22622;-87
2022/10/24 05:53:26;;;;;;;7.20;3.00;;;;;;;;;;103034;1305;22469;-82
2022/10/24 05:55:52;;;;;;;8.20;3.00;;;;;;;;;;102965;1304;22495;-88
2022/10/24 05:58:21;;;;;;;10.00;3.70;;;;;;;;;;102891;1314;25506;-85
2022/10/24 06:00:48;;;;;;;10.00;3.90;;;;;;;;;;102844;1312;25212;-82
2022/10/24 06:03:15;;;;;;;10.80;3.80;;;;;;;;;;103075;1312;22516;-82
2022/10/24 06:05:41;;;;;;;8.80;3.80;;;;;;;;;;102880;1307;25367;-87
2022/10/24 06:08:08;;;;;;;10.80;4.00;;;;;;;;;;102799;1312;22483;-82
2022/10/24 06:10:35;;;;;;;10.30;3.40;;;;;;;;;;102806;1312;22476;-81
2022/10/24 06:13:01;;;;;;;9.70;3.70;;;;;;;;;;103455;1301;25329;-83
2022/10/24 06:15:28;;;;;;;11.10;3.70;;;;;;;;;;103460;1306;25195;-81
2022/10/24 06:17:55;;;;;;;9.70;3.40;;;;;;;;;;103430;1306;23860;-83
2022/10/24 06:20:22;;;;;;;9.80;3.60;;;;;;;;;;103543;1305;22676;-88
2022/10/24 06:22:49;;;;;;;11.90;4.30;;;;;;;;;;103518;1306;22662;-85
2022/10/24 06:25:16;;;;;;;10.00;3.50;;;;;;;;;;103501;1307;22600;-84
2022/10/24 06:27:42;;;;;;;9.50;4.00;;;;;;;;;;103658;1307;24247;-87
2022/10/24 06:30:10;;;;;;;10.60;3.80;;;;;;;;;;103496;1306;24894;-85
2022/10/24 06:32:38;;;;;;;11.60;3.80;;;;;;;;;;103513;1306;22581;-82
2022/10/24 06:35:04;;;;;;;10.40;3.70;;;;;;;;;;103458;1306;26548;-89
2022/10/24 06:37:32;;;;;;;12.00;4.10;;;;;;;;;;103433;1306;24795;-87
2022/10/24 06:39:59;;;;;;;12.00;4.30;;;;;;;;;;103549;1298;25664;-85
2022/10/24 06:42:25;;;;;;;13.30;4.50;;;;;;;;;;103388;1307;25495;-82
2022/10/24 06:44:52;;;;;;;10.00;4.20;;;;;;;;;;103648;1306;23152;-82
2022/10/24 06:47:19;;;;;;;9.10;4.00;;;;;;;;;;103379;1306;25202;-83
2022/10/24 06:49:45;;;;;;;9.00;3.90;;;;;;;;;;103520;1307;22475;-82
2022/10/24 06:52:12;;;;;;;9.80;3.70;;;;;;;;;;103548;1306;22584;-86
2022/10/24 06:54:39;;;;;;;11.70;3.60;;;;;;;;;;103537;1306;23528;-85
2022/10/24 06:57:06;;;;;;;11.30;4.10;;;;;;;;;;103530;1297;22477;-83
2022/10/24 06:59:33;;;;;;;16.00;4.70;;;;;;;;;;103552;1306;25276;-82
2022/10/24 07:01:59;;;;;;;12.30;4.40;;;;;;;;;;103637;1307;25889;-82
2022/10/24 07:04:26;;;;;;;12.30;4.30;;;;;;;;;;103642;1300;22582;-83
2022/10/24 07:06:52;;;;;;;12.90;4.00;;;;;;;;;;103540;1306;25307;-85
2022/10/24 07:09:19;;;;;;;9.70;3.60;;;;;;;;;;103478;1306;25370;-80
2022/10/24 07:11:45;;;;;;;7.80;3.30;;;;;;;;;;103462;1301;24320;-84
2022/10/24 07:14:12;;;;;;;11.00;3.50;;;;;;;;;;103450;1294;22479;-87
2022/10/24 07:16:39;;;;;;;14.30;3.70;;;;;;;;;;103463;1306;22593;-84
2022/10/24 07:19:06;;;;;;;10.50;3.10;;;;;;;;;;103487;1306;22590;-86
2022/10/24 07:21:32;;;;;;;13.60;4.00;;;;;;;;;;103554;1299;22490;-83
2022/10/24 07:23:59;;;;;;;9.80;3.80;;;;;;;;;;103509;1297;23182;-86
2022/10/24 07:26:27;;;;;;;8.80;3.40;;;;;;;;;;103473;1306;25169;-82
2022/10/24 07:28:55;;;;;;;11.90;3.20;;;;;;;;;;103440;1306;22477;-84
2022/10/24 07:31:22;;;;;;;9.80;3.10;;;;;;;;;;103455;1306;22540;-90
2022/10/24 07:33:50;;;;;;;10.50;3.10;;;;;;;;;;103408;1291;24240;-83
2022/10/24 07:36:17;;;;;;;14.10;3.30;;;;;;;;;;103478;1307;22495;-82
2022/10/24 07:38:45;;;;;;;9.50;3.40;;;;;;;;;;103536;1306;22471;-89
2022/10/24 07:41:11;;;;;;;11.50;3.40;;;;;;;;;;103454;1306;25320;-82
2022/10/24 07:43:38;;;;;;;13.30;3.30;;;;;;;;;;103539;1299;22484;-88
2022/10/24 07:46:07;;;;;;;10.00;3.60;;;;;;;;;;103535;1306;22587;-89
2022/10/24 07:48:34;;;;;;;12.80;3.20;;;;;;;;;;103552;1284;25307;-81
2022/10/24 07:51:04;;;;;;;13.50;3.10;;;;;;;;;;103505;1306;24234;-84
2022/10/24 07:53:31;;;;;;;11.80;3.30;;;;;;;;;;103491;1298;22485;-89
2022/10/24 07:55:59;;;;;;;13.40;3.60;;;;;;;;;;103495;1291;24214;-87
2022/10/24 07:58:26;;;;;;;12.30;3.00;;;;;;;;;;103564;1306;25176;-82
2022/10/24 08:00:53;;;;;;;9.90;2.90;;;;;;;;;;103448;1305;24192;-86
2022/10/24 08:03:19;;;;;;;10.30;2.90;;;;;;;;;;103605;1307;22496;-86
2022/10/24 08:05:46;;;;;;;8.50;2.60;;;;;;;;;;103560;1301;22474;-82
2022/10/24 08:08:13;;;;;;;10.50;2.90;;;;;;;;;;103537;1306;22503;-82
2022/10/24 08:10:39;;;;;;;8.90;2.50;;;;;;;;;;103671;1305;22476;-81
2022/10/24 08:13:06;;;;;;;8.30;2.60;;;;;;;;;;103524;1298;22474;-81
2022/10/24 08:15:32;;;;;;;10.90;2.60;;;;;;;;;;103544;1300;23886;-88
2022/10/24 08:17:59;;;;;;;12.50;3.10;;;;;;;;;;103489;1306;23855;-86
2022/10/24 08:20:25;;;;;;;10.70;2.60;;;;;;;;;;103530;1298;24430;-82
2022/10/24 08:22:52;;;;;;;9.10;2.30;;;;;;;;;;103633;1302;22474;-84
2022/10/24 08:25:19;;;;;;;8.30;2.50;;;;;;;;;;103524;1306;22466;-88
2022/10/24 08:27:46;;;;;;;12.00;3.20;;;;;;;;;;103488;1296;25334;-82
2022/10/24 08:30:12;;;;;;;11.00;3.00;;;;;;;;;;103490;1306;24428;-82
2022/10/24 08:32:39;;;;;;;9.70;2.50;;;;;;;;;;103546;1306;23852;-86
2022/10/24 08:35:06;;;;;;;7.70;2.60;;;;;;;;;;103553;1298;22477;-83
2022/10/24 08:37:36;;;;;;;8.10;2.40;;;;;;;;;;103568;1306;24265;-87
2022/10/24 08:40:04;;;;;;;8.00;1.90;;;;;;;;;;103433;1306;22540;-87
2022/10/24 08:42:32;;;;;;;8.70;2.10;;;;;;;;;;103524;1305;22581;-87
2022/10/24 08:44:59;;;;;;;9.80;2.30;;;;;;;;;;103542;1306;25303;-84
2022/10/24 08:47:32;;;;;;;7.60;1.90;;;;;;;;;;103565;1306;22498;-82
2022/10/24 08:50:18;;;;;;;7.80;2.00;;;;;;;;;;103387;1306;24226;-83
2022/10/24 08:52:50;;;;;;;8.00;2.10;;;;;;;;;;103487;1306;23998;-87
2022/10/24 08:55:22;;;;;;;9.70;2.20;;;;;;;;;;103504;1306;22474;-85
2022/10/24 08:57:51;;;;;;;9.30;1.90;;;;;;;;;;103529;1306;22594;-87
2022/10/24 09:00:17;;;;;;;7.30;2.20;;;;;;;;;;103531;1305;23300;-82
2022/10/24 09:02:48;;;;;;;8.40;2.00;;;;;;;;;;103603;1306;25228;-82
2022/10/24 09:05:23;;;;;;;10.30;2.70;;;;;;;;;;103434;1307;25332;-86
2022/10/24 09:08:00;;;;;;;11.20;2.90;;;;;;;;;;103614;1307;22491;-86
2022/10/24 09:10:47;;;;;;;11.90;2.60;;;;;;;;;;103489;1307;22722;-85
2022/10/24 09:13:14;;;;;;;8.60;2.10;;;;;;;;;;103791;1298;24214;-82
2022/10/24 09:15:42;;;;;;;8.90;2.00;;;;;;;;;;103589;1304;24342;-87
2022/10/24 09:18:15;;;;;;;7.10;2.20;;;;;;;;;;103493;1307;22813;-85
2022/10/24 09:20:42;;;;;;;7.90;2.30;;;;;;;;;;103687;1307;22523;-86
2022/10/24 09:23:11;;;;;;;8.10;2.00;;;;;;;;;;103600;1306;22543;-82
2022/10/24 09:25:40;;;;;;;6.00;1.90;;;;;;;;;;106763;1306;22098;-82
2022/10/24 09:28:07;;;;;;;7.50;2.30;;;;;;;;;;106945;1306;22740;-82
2022/10/24 09:30:35;;;;;;;9.00;2.20;;;;;;;;;;106852;1306;22070;-82
2022/10/24 09:33:23;;;;;;;6.70;2.00;;;;;;;;;;107063;1299;22042;-83
2022/10/24 09:35:50;;;;;;;13.40;2.50;;;;;;;;;;106853;1306;22275;-82
2022/10/24 09:38:26;;;;;;;6.40;2.10;;;;;;;;;;107022;1306;22056;-83
2022/10/24 09:40:54;;;;;;;9.70;2.90;;;;;;;;;;106921;1306;22078;-83
2022/10/24 09:43:22;;;;;;;9.40;3.40;;;;;;;;;;106872;1306;22765;-83
2022/10/24 09:46:01;;;;;;;9.00;3.00;;;;;;;;;;107147;1299;22125;-83
2022/10/24 09:48:47;;;;;;;11.80;2.50;;;;;;;;;;106898;1301;22037;-83
2022/10/24 09:51:26;;;;;;;12.30;3.80;;;;;;;;;;107235;1299;22049;-82
2022/10/24 09:53:57;;;;;;;12.30;5.20;;;;;;;;;;106896;1306;22139;-83
2022/10/24 09:56:31;;;;;;;16.20;7.40;;;;;;;;;;106923;1307;22075;-82
2022/10/24 09:59:16;;;;;;;10.90;3.20;;;;;;;;;;106929;1301;22102;-83
2022/10/24 10:01:44;;;;;;;13.40;4.40;;;;;;;;;;107040;1306;22141;-82
2022/10/24 10:04:15;;;;;;;38.40;22.30;;;;;;;;;;106872;1301;22087;-82
2022/10/24 10:06:44;;;;;;;12.70;4.20;;;;;;;;;;106841;1306;22159;-83
2022/10/24 10:09:12;;;;;;;9.10;2.70;;;;;;;;;;106721;1306;22122;-82
2022/10/24 10:11:39;;;;;;;10.10;2.70;;;;;;;;;;106933;1306;23085;-84
2022/10/24 10:14:17;;;;;;;12.10;2.60;;;;;;;;;;106847;1307;22643;-82
2022/10/24 10:16:44;;;;;;;8.80;2.50;;;;;;;;;;106986;1305;22719;-83
2022/10/24 10:19:15;;;;;;;10.00;2.70;;;;;;;;;;106802;1307;21946;-82
2022/10/24 10:21:55;;;;;;;11.60;2.50;;;;;;;;;;106878;1307;22150;-83
2022/10/24 10:24:34;;;;;;;9.80;2.70;;;;;;;;;;106862;1306;22077;-83
2022/10/24 10:27:01;;;;;;;7.90;2.30;;;;;;;;;;106949;1306;22120;-82
2022/10/24 10:29:28;;;;;;;8.90;2.30;;;;;;;;;;106914;1306;22196;-85
2022/10/24 10:32:05;;;;;;;8.50;2.90;;;;;;;;;;106866;1306;22914;-83
2022/10/24 10:34:38;;;;;;;9.60;2.80;;;;;;;;;;106922;1306;22082;-79
2022/10/24 10:37:23;;;;;;;9.60;2.40;;;;;;;;;;106759;1306;22110;-80
2022/10/24 10:40:08;;;;;;;8.40;2.40;;;;;;;;;;107169;1284;22119;-80
2022/10/24 10:42:43;;;;;;;8.30;2.60;;;;;;;;;;106954;1306;22100;-80
2022/10/24 10:45:18;;;;;;;7.60;2.20;;;;;;;;;;106796;1306;22062;-80
2022/10/24 10:48:03;;;;;;;9.40;2.80;;;;;;;;;;107160;1298;22067;-80
2022/10/24 10:50:54;;;;;;;10.90;2.80;;;;;;;;;;106934;1306;22120;-80
2022/10/24 10:53:56;;;;;;;12.20;2.60;;;;;;;;;;106942;1306;22130;-80
2022/10/24 10:56:22;;;;;;;11.60;2.70;;;;;;;;;;106431;1313;22880;-80
2022/10/24 10:59:24;;;;;;;8.30;2.50;;;;;;;;;;106442;1313;22982;-79
2022/10/24 11:02:19;;;;;;;9.00;2.50;;;;;;;;;;105979;1318;22115;-80
2022/10/24 11:04:57;;;;;;;8.10;2.10;;;;;;;;;;106262;1310;22131;-80
2022/10/24 11:07:38;;;;;;;11.80;2.60;;;;;;;;;;105904;1318;22152;-81
2022/10/24 11:10:07;;;;;;;9.00;2.30;;;;;;;;;;105913;1318;21997;-80
2022/10/24 11:12:36;;;;;;;9.00;2.40;;;;;;;;;;105883;1318;22393;-79
2022/10/24 11:15:05;;;;;;;11.00;3.00;;;;;;;;;;105708;1321;22700;-79
2022/10/24 11:17:34;;;;;;;6.30;2.20;;;;;;;;;;105659;1319;22201;-81
2022/10/24 11:20:04;;;;;;;11.30;2.50;;;;;;;;;;106244;1310;22110;-80
2022/10/24 11:22:37;;;;;;;10.40;2.50;;;;;;;;;;105760;1320;22145;-81
2022/10/24 11:25:23;;;;;;;13.10;2.80;;;;;;;;;;106025;1312;22144;-80
2022/10/24 11:27:53;;;;;;;9.30;2.70;;;;;;;;;;105871;1318;22125;-80
2022/10/24 11:30:21;;;;;;;10.90;2.80;;;;;;;;;;106029;1312;22103;-80
2022/10/24 11:32:57;;;;;;;8.00;2.40;;;;;;;;;;106494;1312;22851;-80
2022/10/24 11:35:28;;;;;;;11.00;2.30;;;;;;;;;;106437;1306;22050;-80
2022/10/24 11:38:01;;;;;;;9.80;2.40;;;;;;;;;;107101;1285;22095;-79
2022/10/24 11:40:28;;;;;;;8.50;2.50;;;;;;;;;;107087;1291;22031;-80
2022/10/24 11:43:11;;;;;;;12.40;2.10;;;;;;;;;;106828;1307;22096;-81
2022/10/24 11:45:43;;;;;;;9.60;2.40;;;;;;;;;;106887;1307;22079;-80
2022/10/24 11:48:20;;;;;;;11.00;2.40;;;;;;;;;;107134;1285;22532;-81
2022/10/24 11:50:47;;;;;;;7.90;2.20;;;;;;;;;;107141;1285;22725;-80
2022/10/24 11:53:17;;;;;;;10.80;2.50;;;;;;;;;;106914;1306;22097;-81
2022/10/24 11:56:07;;;;;;;11.70;2.40;;;;;;;;;;106900;1306;23237;-80
2022/10/24 11:58:37;;;;;;;10.80;3.00;;;;;;;;;;106854;1301;22072;-79
2022/10/24 12:01:39;;;;;;;10.10;2.50;;;;;;;;;;106987;1299;22028;-81
2022/10/24 12:04:27;;;;;;;7.60;2.50;;;;;;;;;;106377;1308;21953;-80
2022/10/24 12:07:12;;;;;;;11.80;2.20;;;;;;;;;;106202;1313;22613;-80
2022/10/24 12:09:42;;;;;;;7.00;1.70;;;;;;;;;;106680;1305;22105;-81
2022/10/24 12:12:08;;;;;;;10.90;2.80;;;;;;;;;;106395;1313;22116;-80
2022/10/24 12:14:47;;;;;;;9.20;2.30;;;;;;;;;;106395;1313;22158;-80
2022/10/24 12:17:22;;;;;;;11.00;2.20;;;;;;;;;;106194;1314;22244;-79
2022/10/24 12:19:49;;;;;;;11.60;2.40;;;;;;;;;;106261;1315;22282;-80
2022/10/24 12:22:20;;;;;;;9.80;2.10;;;;;;;;;;106103;1315;22135;-78
2022/10/24 12:24:47;;;;;;;8.80;2.20;;;;;;;;;;106221;1315;22306;-79
2022/10/24 12:27:19;;;;;;;8.00;2.00;;;;;;;;;;106344;1313;22046;-80
2022/10/24 12:29:59;;;;;;;9.20;2.00;;;;;;;;;;106402;1313;21924;-81
2022/10/24 12:32:34;;;;;;;9.20;2.00;;;;;;;;;;106254;1306;21644;-79
2022/10/24 12:35:02;;;;;;;9.90;2.10;;;;;;;;;;106382;1313;22082;-80
2022/10/24 12:37:30;;;;;;;7.10;2.30;;;;;;;;;;106365;1309;22111;-81
2022/10/24 12:39:57;;;;;;;8.70;2.60;;;;;;;;;;106936;1302;22083;-80
2022/10/24 12:42:24;;;;;;;10.00;2.60;;;;;;;;;;106634;1303;22045;-80
2022/10/24 12:45:00;;;;;;;11.00;2.30;;;;;;;;;;106945;1302;22028;-81
2022/10/24 12:47:29;;;;;;;8.90;2.40;;;;;;;;;;106755;1307;22086;-82
2022/10/24 12:49:57;;;;;;;8.90;2.20;;;;;;;;;;106658;1311;22054;-82
2022/10/24 12:52:30;;;;;;;12.30;2.40;;;;;;;;;;107052;1301;22077;-80
2022/10/24 12:54:57;;;;;;;8.60;2.80;;;;;;;;;;107055;1302;22054;-81
2022/10/24 12:57:31;;;;;;;10.80;2.40;;;;;;;;;;106594;1309;22089;-80
2022/10/24 12:59:59;;;;;;;11.40;2.70;;;;;;;;;;106663;1310;22228;-81
2022/10/24 13:02:32;;;;;;;11.40;2.70;;;;;;;;;;106670;1312;22149;-80
2022/10/24 13:05:05;;;;;;;12.60;2.60;;;;;;;;;;106791;1308;22027;-81
2022/10/24 13:07:47;;;;;;;12.10;2.80;;;;;;;;;;106915;1302;22027;-80
2022/10/24 13:10:19;;;;;;;9.20;2.60;;;;;;;;;;106926;1302;22079;-80
2022/10/24 13:12:58;;;;;;;12.40;3.40;;;;;;;;;;106729;1309;22725;-81
2022/10/24 13:15:39;;;;;;;9.20;2.60;;;;;;;;;;106669;1294;22100;-81
2022/10/24 13:18:13;;;;;;;7.00;2.70;;;;;;;;;;106698;1309;22704;-80
2022/10/24 13:20:42;;;;;;;12.10;3.90;;;;;;;;;;106626;1309;21939;-80
2022/10/24 13:23:14;;;;;;;9.90;3.30;;;;;;;;;;106802;1303;22132;-80
2022/10/24 13:25:42;;;;;;;12.20;3.60;;;;;;;;;;106746;1307;22649;-79
2022/10/24 13:28:18;;;;;;;11.70;3.70;;;;;;;;;;106814;1300;22030;-80
2022/10/24 13:30:45;;;;;;;10.10;3.10;;;;;;;;;;106733;1310;22070;-80
2022/10/24 13:33:38;;;;;;;9.50;2.70;;;;;;;;;;106698;1310;22017;-80
2022/10/24 13:36:05;;;;;;;14.70;3.00;;;;;;;;;;106773;1305;22044;-80
2022/10/24 13:38:33;;;;;;;10.70;3.30;;;;;;;;;;106915;1302;22090;-80
2022/10/24 13:40:59;;;;;;;12.80;3.30;;;;;;;;;;106726;1309;22082;-80
2022/10/24 13:43:30;;;;;;;11.90;3.10;;;;;;;;;;106689;1295;22570;-79
2022/10/24 13:46:01;;;;;;;16.40;3.50;;;;;;;;;;106639;1305;22085;-80
2022/10/24 13:48:30;;;;;;;15.90;3.60;;;;;;;;;;106637;1309;21672;-79
2022/10/24 13:51:04;;;;;;;12.80;3.20;;;;;;;;;;106703;1309;22764;-80
2022/10/24 13:53:33;;;;;;;13.00;3.20;;;;;;;;;;106722;1309;23194;-80
2022/10/24 13:56:03;;;;;;;10.50;2.60;;;;;;;;;;106958;1294;22782;-79
2022/10/24 13:58:36;;;;;;;10.60;3.50;;;;;;;;;;106669;1304;22129;-80
2022/10/24 14:01:05;;;;;;;13.50;3.10;;;;;;;;;;106676;1310;21996;-79
2022/10/24 14:03:33;;;;;;;11.20;2.80;;;;;;;;;;106715;1309;22751;-81
2022/10/24 14:06:02;;;;;;;13.00;2.90;;;;;;;;;;106671;1309;22162;-80
2022/10/24 14:08:37;;;;;;;11.00;2.80;;;;;;;;;;106618;1310;21974;-80
2022/10/24 14:11:05;;;;;;;15.50;2.80;;;;;;;;;;106703;1308;22594;-81
2022/10/24 14:13:37;;;;;;;11.30;3.30;;;;;;;;;;106674;1305;21877;-80
2022/10/24 14:16:05;;;;;;;13.80;3.00;;;;;;;;;;106735;1309;22122;-80
2022/10/24 14:18:32;;;;;;;10.70;3.30;;;;;;;;;;106616;1305;22065;-80
2022/10/24 14:21:01;;;;;;;10.50;3.30;;;;;;;;;;106707;1309;22109;-80
2022/10/24 14:23:30;;;;;;;11.10;3.90;;;;;;;;;;106644;1310;22142;-80
2022/10/24 14:26:00;;;;;;;13.20;4.60;;;;;;;;;;106717;1309;22380;-80
2022/10/24 14:28:29;;;;;;;13.20;3.20;;;;;;;;;;106403;1294;378782;-79
2022/10/24 14:30:57;;;;;;;12.70;3.60;;;;;;;;;;106640;1310;22085;-80
2022/10/24 14:33:27;;;;;;;11.30;3.90;;;;;;;;;;106692;1309;22864;-80
2022/10/24 14:35:55;;;;;;;13.40;3.60;;;;;;;;;;106663;1310;21981;-80
2022/10/24 14:38:22;;;;;;;13.40;4.40;;;;;;;;;;106668;1309;21780;-80
2022/10/24 14:40:49;;;;;;;14.40;3.40;;;;;;;;;;106644;1310;22071;-80
2022/10/24 14:43:18;;;;;;;12.60;3.40;;;;;;;;;;106727;1309;22064;-80
2022/10/24 14:46:05;;;;;;;11.40;4.00;;;;;;;;;;106649;1313;22523;-80
2022/10/24 14:48:32;;;;;;;11.80;4.20;;;;;;;;;;106934;1294;22172;-80
2022/10/24 14:51:03;;;;;;;13.30;4.70;;;;;;;;;;106715;1310;22062;-80